Time;durP1;ratioP1;P1;durP2;ratioP2;P2;SDS_P1;SDS_P2;PMS_P1;PMS_P2;Temp;Humidity;BMP_temperature;BMP_pressure;BME280_temperature;BME280_humidity;BME280_pressure;Samples;Min_cycle;Max_cycle;Signal;HPM_P1;HPM_P2
2024/04/09 00:02:07;;;;;;;48.53;23.42;;;;;;;12.34;100.00;100191.97;5281698;27;20644;-74
2024/04/09 00:04:33;;;;;;;38.28;22.33;;;;;;;12.32;100.00;100191.34;5293486;26;20010;-73
2024/04/09 00:06:59;;;;;;;42.42;24.15;;;;;;;12.28;100.00;100193.56;5293309;27;20453;-75
2024/04/09 00:09:29;;;;;;;52.63;26.60;;;;;;;12.34;100.00;100200.84;5296089;26;20058;-76
2024/04/09 00:11:55;;;;;;;48.35;24.38;;;;;;;12.23;100.00;100201.34;5284301;26;20000;-76
2024/04/09 00:14:20;;;;;;;56.00;30.27;;;;;;;12.16;100.00;100193.22;5280116;27;20021;-75
2024/04/09 00:16:47;;;;;;;49.80;24.85;;;;;;;12.24;100.00;100206.50;5292903;26;20001;-76
2024/04/09 00:19:17;;;;;;;49.67;24.38;;;;;;;12.17;100.00;100194.84;5279529;26;20020;-75
2024/04/09 00:21:42;;;;;;;51.65;28.30;;;;;;;12.04;100.00;100210.75;5286422;26;20013;-74
2024/04/09 00:24:08;;;;;;;55.30;28.40;;;;;;;11.98;100.00;100204.28;5310152;26;20020;-75
2024/04/09 00:26:34;;;;;;;58.83;30.13;;;;;;;11.95;100.00;100193.13;5312742;26;20362;-75
2024/04/09 00:28:59;;;;;;;;;;;;;;;12.02;100.00;100199.41;5287918;27;20256;-74
2024/04/09 00:31:25;;;;;;;52.15;26.38;;;;;;;11.95;100.00;100187.78;5289285;27;19927;-76
2024/04/09 00:33:51;;;;;;;61.27;28.20;;;;;;;11.89;100.00;100178.63;5291602;26;20465;-75
2024/04/09 00:36:17;;;;;;;56.63;26.90;;;;;;;11.95;100.00;100183.25;5280740;26;19994;-74
2024/04/09 00:38:46;;;;;;;54.47;29.50;;;;;;;11.90;100.00;100180.31;5289117;27;20470;-71
2024/04/09 00:41:13;;;;;;;54.60;29.85;;;;;;;11.89;100.00;100188.53;5271339;27;20006;-75
2024/04/09 00:43:39;;;;;;;55.35;28.85;;;;;;;11.79;100.00;100178.06;5291783;26;19997;-74
2024/04/09 00:46:05;;;;;;;58.65;28.17;;;;;;;11.32;100.00;100166.69;5281717;26;20040;-75
2024/04/09 00:48:31;;;;;;;50.53;27.27;;;;;;;11.29;100.00;100196.44;5290364;27;20034;-76
2024/04/09 00:50:57;;;;;;;61.42;29.75;;;;;;;11.74;100.00;100208.03;5282971;26;20611;-73
2024/04/09 00:53:23;;;;;;;62.75;31.40;;;;;;;11.73;100.00;100194.84;5291403;26;20372;-75
2024/04/09 00:55:50;;;;;;;63.47;31.33;;;;;;;11.76;100.00;100183.78;5284429;27;20013;-75
2024/04/09 00:58:17;;;;;;;63.47;30.98;;;;;;;11.72;100.00;100172.63;5283755;27;20007;-75
2024/04/09 01:00:43;;;;;;;57.60;30.70;;;;;;;11.61;100.00;100165.03;5270226;27;20013;-74
2024/04/09 01:03:10;;;;;;;65.90;33.42;;;;;;;11.69;100.00;100164.97;5278301;27;20006;-75
2024/04/09 01:05:36;;;;;;;67.57;32.90;;;;;;;11.60;100.00;100164.22;5282893;27;19998;-75
2024/04/09 01:08:03;;;;;;;63.30;30.23;;;;;;;11.59;100.00;100146.53;5292699;26;20013;-73
2024/04/09 01:10:28;;;;;;;;;;;;;;;11.84;100.00;100151.59;5278180;27;20346;-74
2024/04/09 01:12:54;;;;;;;57.05;29.42;;;;;;;11.71;100.00;100128.19;5279710;27;19939;-76
2024/04/09 01:15:19;;;;;;;54.40;28.03;;;;;;;11.82;100.00;100129.56;5289749;26;20078;-74
2024/04/09 01:17:44;;;;;;;57.07;26.40;;;;;;;11.88;100.00;100125.34;5271756;27;20002;-74
2024/04/09 01:20:13;;;;;;;54.97;27.57;;;;;;;11.98;100.00;100140.06;5272299;26;20012;-75
2024/04/09 01:22:39;;;;;;;55.25;28.30;;;;;;;11.99;100.00;100125.69;5270652;27;20007;-76
2024/04/09 01:25:05;;;;;;;;;;;;;;;12.01;100.00;100123.69;5272984;27;19997;-74
2024/04/09 01:27:33;;;;;;;65.95;29.95;;;;;;;11.74;100.00;100117.13;5315279;26;19935;-75
2024/04/09 01:30:00;;;;;;;50.28;27.63;;;;;;;11.76;100.00;100131.13;5288296;26;20032;-76
2024/04/09 01:32:26;;;;;;;59.97;29.27;;;;;;;11.86;100.00;100132.69;5283112;27;20002;-74
2024/04/09 01:34:52;;;;;;;58.03;28.42;;;;;;;11.79;100.00;100130.75;5271760;27;20092;-72
2024/04/09 01:37:17;;;;;;;57.88;28.75;;;;;;;11.64;100.00;100140.63;5274975;27;20481;-74
2024/04/09 01:39:45;;;;;;;63.20;29.90;;;;;;;11.61;100.00;100147.19;5276173;27;19994;-75
2024/04/09 01:42:14;;;;;;;53.28;29.10;;;;;;;11.70;100.00;100157.78;5273512;26;20094;-75
2024/04/09 01:44:40;;;;;;;54.58;29.05;;;;;;;11.62;100.00;100142.66;5306891;26;20007;-75
2024/04/09 01:47:05;;;;;;;54.57;29.33;;;;;;;11.63;100.00;100136.28;5289288;27;20012;-75
2024/04/09 01:49:31;;;;;;;60.75;28.85;;;;;;;11.65;100.00;100134.25;5278547;27;20234;-75
2024/04/09 01:51:57;;;;;;;52.40;26.92;;;;;;;11.50;100.00;100136.13;5284810;26;19998;-73
2024/04/09 01:54:22;;;;;;;56.42;28.63;;;;;;;11.26;100.00;100138.03;5286853;26;20080;-74
2024/04/09 01:56:48;;;;;;;61.78;30.13;;;;;;;11.17;100.00;100150.63;5296006;27;20016;-75
2024/04/09 01:59:14;;;;;;;56.05;27.30;;;;;;;11.13;100.00;100152.00;5287830;26;20352;-75
2024/04/09 02:01:42;;;;;;;53.33;26.98;;;;;;;11.17;100.00;100150.63;5273474;27;20349;-74
2024/04/09 02:04:07;;;;;;;59.97;28.02;;;;;;;11.16;100.00;100148.13;5287021;27;20002;-73
2024/04/09 02:06:33;;;;;;;59.05;29.25;;;;;;;11.07;100.00;100157.22;5306279;26;20002;-75
2024/04/09 02:08:59;;;;;;;61.55;27.52;;;;;;;11.07;100.00;100154.53;5294237;26;20017;-75
2024/04/09 02:11:28;;;;;;;60.75;29.63;;;;;;;10.98;100.00;100167.97;5279556;27;20002;-75
2024/04/09 02:13:55;;;;;;;52.38;27.30;;;;;;;11.03;100.00;100155.91;5281449;27;20001;-74
2024/04/09 02:16:21;;;;;;;57.88;28.27;;;;;;;11.07;100.00;100151.88;5293207;26;20346;-75
2024/04/09 02:18:47;;;;;;;47.83;25.67;;;;;;;11.31;100.00;100165.03;5294358;27;20006;-73
2024/04/09 02:21:15;;;;;;;52.47;27.02;;;;;;;11.16;100.00;100134.75;5314557;26;20021;-75
2024/04/09 02:23:41;;;;;;;46.70;24.90;;;;;;;11.46;100.00;100132.97;5299536;26;20458;-72
2024/04/09 02:26:07;;;;;;;48.30;25.52;;;;;;;11.47;100.00;100131.13;5281762;27;20566;-72
2024/04/09 02:28:33;;;;;;;62.03;28.73;;;;;;;11.35;100.00;100134.22;5292188;27;20001;-75
2024/04/09 02:30:59;;;;;;;48.28;25.05;;;;;;;11.59;100.00;100121.66;5284146;26;20001;-73
2024/04/09 02:33:24;;;;;;;;;;;;;;;11.46;100.00;100097.41;5275927;27;20015;-74
2024/04/09 02:36:09;;;;;;;44.72;23.73;;;;;;;11.41;100.00;100090.75;5304969;26;20007;-73
2024/04/09 02:38:36;;;;;;;51.65;26.70;;;;;;;11.20;100.00;100077.28;5285549;27;20039;-73
2024/04/09 02:41:07;;;;;;;53.00;25.73;;;;;;;11.18;100.00;100073.97;5289155;26;19998;-73
2024/04/09 02:43:34;;;;;;;46.63;24.33;;;;;;;11.17;100.00;100073.16;5305965;26;20018;-72
2024/04/09 02:46:00;;;;;;;47.20;25.67;;;;;;;11.14;100.00;100078.84;5283253;27;20002;-74
2024/04/09 02:48:27;;;;;;;60.00;29.05;;;;;;;11.17;100.00;100072.31;5288588;27;20601;-73
2024/04/09 02:50:53;;;;;;;;;;;;;;;11.28;100.00;100092.41;5284587;27;20067;-75
2024/04/09 02:53:19;;;;;;;49.47;25.83;;;;;;;11.32;100.00;100097.19;5261673;27;19927;-73
2024/04/09 02:55:44;;;;;;;47.00;26.50;;;;;;;11.40;100.00;100102.47;5284767;27;20343;-74
2024/04/09 02:58:12;;;;;;;52.40;27.57;;;;;;;11.39;100.00;100116.81;5288653;27;20128;-72
2024/04/09 03:00:38;;;;;;;55.70;25.30;;;;;;;11.44;100.00;100123.47;5279515;26;20473;-73
2024/04/09 03:03:04;;;;;;;45.42;23.42;;;;;;;11.49;100.00;100126.41;5277421;27;20008;-73
2024/04/09 03:05:32;;;;;;;43.28;24.83;;;;;;;11.53;100.00;100122.38;5307832;26;20002;-73
2024/04/09 03:07:58;;;;;;;46.50;24.63;;;;;;;11.54;100.00;100099.97;5285266;27;20001;-73
2024/04/09 03:10:26;;;;;;;49.70;25.02;;;;;;;11.56;100.00;100095.25;5274741;27;20014;-73
2024/04/09 03:12:51;;;;;;;56.17;27.63;;;;;;;11.53;100.00;100098.31;5265011;27;20567;-76
2024/04/09 03:15:17;;;;;;;58.10;27.27;;;;;;;11.56;100.00;100111.31;5284361;26;20027;-73
2024/04/09 03:17:42;;;;;;;49.57;24.60;;;;;;;11.60;100.00;100104.59;5283659;27;20647;-73
2024/04/09 03:20:10;;;;;;;52.03;26.30;;;;;;;11.61;100.00;100112.44;5282208;27;20002;-73
2024/04/09 03:22:36;;;;;;;46.60;25.10;;;;;;;11.58;100.00;100106.59;5280528;27;20016;-74
2024/04/09 03:25:01;;;;;;;47.67;25.42;;;;;;;11.56;100.00;100097.94;5291677;27;19998;-76
2024/04/09 03:27:27;;;;;;;49.03;24.03;;;;;;;11.56;100.00;100095.25;5278413;27;20364;-76
2024/04/09 03:29:52;;;;;;;39.07;22.40;;;;;;;11.60;100.00;100099.22;5254158;27;20002;-73
2024/04/09 03:32:17;;;;;;;45.97;24.60;;;;;;;11.56;100.00;100087.25;5272598;27;20018;-73
2024/04/09 03:34:46;;;;;;;53.80;25.23;;;;;;;11.54;100.00;100087.44;5272245;27;19994;-74
2024/04/09 03:37:11;;;;;;;42.90;24.60;;;;;;;11.52;100.00;100086.81;5288099;27;20017;-75
2024/04/09 03:39:36;;;;;;;51.90;21.73;;;;;;;11.46;100.00;100076.00;5279660;26;20018;-75
2024/04/09 03:42:02;;;;;;;77.80;40.33;;;;;;;11.44;100.00;100083.38;5272516;27;20448;-75
2024/04/09 03:44:27;;;;;;;76.00;39.47;;;;;;;11.42;100.00;100078.22;5278038;27;20077;-73
2024/04/09 03:46:53;;;;;;;68.57;35.37;;;;;;;11.40;100.00;100072.22;5281352;27;20017;-73
2024/04/09 03:49:18;;;;;;;58.97;29.37;;;;;;;11.41;100.00;100076.56;5284032;27;20002;-73
2024/04/09 03:51:44;;;;;;;40.88;24.20;;;;;;;11.44;100.00;100078.03;5273663;26;20450;-73
2024/04/09 03:54:10;;;;;;;55.40;27.00;;;;;;;11.39;100.00;100068.72;5283955;26;19998;-74
2024/04/09 03:56:36;;;;;;;45.22;23.75;;;;;;;11.36;100.00;100065.59;5282287;27;20009;-73
2024/04/09 03:59:01;;;;;;;54.47;27.27;;;;;;;11.31;100.00;100062.66;5308456;26;19998;-75
2024/04/09 04:01:27;;;;;;;33.50;21.20;;;;;;;11.22;100.00;100056.56;5282491;27;20354;-76
2024/04/09 04:03:53;;;;;;;43.35;23.30;;;;;;;11.20;100.00;100055.91;5283138;27;20516;-73
2024/04/09 04:06:18;;;;;;;49.80;24.65;;;;;;;11.17;100.00;100056.28;5275414;27;19997;-75
2024/04/09 04:08:44;;;;;;;49.03;23.67;;;;;;;11.17;100.00;100050.94;5277717;27;20036;-74
2024/04/09 04:11:12;;;;;;;42.17;22.50;;;;;;;11.18;100.00;100052.59;5273860;26;20012;-73
2024/04/09 04:13:38;;;;;;;47.35;25.45;;;;;;;11.22;100.00;100055.75;5272124;27;20094;-73
2024/04/09 04:16:07;;;;;;;;;;;;;;;11.25;100.00;100048.16;5285792;27;20002;-74
2024/04/09 04:18:36;;;;;;;45.47;22.23;;;;;;;11.28;100.00;100046.97;5310455;26;19927;-73
2024/04/09 04:21:03;;;;;;;50.75;24.15;;;;;;;11.29;100.00;100041.44;5276523;26;20072;-76
2024/04/09 04:23:29;;;;;;;53.45;26.52;;;;;;;11.35;100.00;100054.06;5301097;26;20014;-73
2024/04/09 04:25:54;;;;;;;50.35;26.95;;;;;;;11.41;100.00;100061.34;5276927;26;20006;-74
2024/04/09 04:28:20;;;;;;;53.27;26.80;;;;;;;11.43;100.00;100060.34;5298581;26;20442;-74
2024/04/09 04:30:45;;;;;;;54.00;26.10;;;;;;;11.50;100.00;100045.22;5288262;26;20492;-74
2024/04/09 04:33:10;;;;;;;48.17;25.73;;;;;;;11.51;100.00;100041.53;5278451;26;20051;-74
2024/04/09 04:35:36;;;;;;;44.77;26.07;;;;;;;11.48;100.00;100037.38;5301742;26;20018;-74
2024/04/09 04:38:01;;;;;;;38.47;23.27;;;;;;;11.57;100.00;100036.28;5283353;26;20017;-73
2024/04/09 04:40:27;;;;;;;45.57;23.47;;;;;;;11.63;100.00;100040.03;5288045;26;20465;-74
2024/04/09 04:42:52;;;;;;;40.97;23.53;;;;;;;11.58;100.00;100037.91;5284687;26;20021;-74
2024/04/09 04:45:18;;;;;;;41.90;20.92;;;;;;;11.66;100.00;100036.16;5303555;26;20106;-74
2024/04/09 04:47:43;;;;;;;41.43;23.97;;;;;;;11.71;100.00;100036.44;5286504;26;20080;-74
2024/04/09 04:50:08;;;;;;;45.00;21.97;;;;;;;11.78;100.00;100043.53;5276520;27;20437;-75
2024/04/09 04:52:34;;;;;;;37.93;22.00;;;;;;;11.79;100.00;100033.66;5280412;27;20003;-75
2024/04/09 04:54:59;;;;;;;39.13;21.63;;;;;;;11.84;100.00;100032.06;5278541;27;20045;-74
2024/04/09 04:57:25;;;;;;;39.77;22.37;;;;;;;11.85;100.00;100030.25;5273057;27;20006;-74
2024/04/09 04:59:50;;;;;;;46.90;22.88;;;;;;;11.90;100.00;100021.69;5295363;26;20002;-75
2024/04/09 05:02:17;;;;;;;37.47;21.20;;;;;;;11.93;100.00;100029.31;5289843;26;20001;-74
2024/04/09 05:04:42;;;;;;;43.58;21.60;;;;;;;11.95;100.00;100027.28;5289562;26;20005;-74
2024/04/09 05:07:08;;;;;;;39.33;20.90;;;;;;;11.89;100.00;100015.47;5257335;27;20778;-75
2024/04/09 05:09:33;;;;;;;40.30;21.23;;;;;;;12.06;100.00;100031.28;5283470;26;20002;-74
2024/04/09 05:11:59;;;;;;;33.05;18.67;;;;;;;12.10;100.00;100032.59;5276411;27;20002;-74
2024/04/09 05:14:25;;;;;;;33.67;18.35;;;;;;;12.24;100.00;100032.53;5294432;27;20010;-75
2024/04/09 05:16:50;;;;;;;32.55;18.85;;;;;;;12.29;100.00;100029.31;5302520;26;20436;-75
2024/04/09 05:19:16;;;;;;;32.83;18.60;;;;;;;12.42;100.00;100033.94;5282812;27;20002;-75
2024/04/09 05:21:41;;;;;;;31.80;17.20;;;;;;;12.43;100.00;100024.88;5285062;26;20013;-74
2024/04/09 05:24:07;;;;;;;28.40;15.83;;;;;;;12.42;100.00;100026.72;5276655;27;20491;-74
2024/04/09 05:26:33;;;;;;;29.52;15.93;;;;;;;12.48;100.00;100010.91;5287346;27;20348;-74
2024/04/09 05:28:59;;;;;;;29.40;17.73;;;;;;;12.54;100.00;100012.81;5289982;26;20013;-73
2024/04/09 05:31:24;;;;;;;33.40;16.25;;;;;;;12.54;100.00;100010.97;5296223;26;20415;-73
2024/04/09 05:33:50;;;;;;;33.07;17.00;;;;;;;12.62;100.00;100015.38;5296668;26;20085;-73
2024/04/09 05:36:15;;;;;;;27.80;15.47;;;;;;;12.69;100.00;100018.94;5295634;26;20005;-74
2024/04/09 05:38:41;;;;;;;31.43;15.60;;;;;;;12.76;100.00;100011.78;5289157;26;20790;-74
2024/04/09 05:41:06;;;;;;;30.43;14.97;;;;;;;12.84;100.00;100008.94;5278388;27;20320;-74
2024/04/09 05:43:31;;;;;;;26.77;14.07;;;;;;;12.94;100.00;100005.91;5286104;27;20032;-73
2024/04/09 05:45:57;;;;;;;22.10;13.17;;;;;;;13.10;100.00;99984.16;5289143;26;20237;-74
2024/04/09 05:48:22;;;;;;;23.07;14.30;;;;;;;13.14;100.00;99957.00;5284001;27;20092;-74
2024/04/09 05:50:47;;;;;;;27.27;12.83;;;;;;;13.29;100.00;99955.84;5281050;27;20070;-74
2024/04/09 05:53:14;;;;;;;20.33;12.93;;;;;;;13.30;100.00;99945.97;5296317;26;20008;-74
2024/04/09 05:55:40;;;;;;;23.40;12.50;;;;;;;13.45;100.00;99946.63;5289786;26;20456;-73
2024/04/09 05:58:07;;;;;;;20.83;11.57;;;;;;;13.65;100.00;99924.41;5296910;26;20006;-75
2024/04/09 06:00:32;;;;;;;20.35;10.43;;;;;;;13.65;100.00;99905.63;5279742;26;20002;-74
2024/04/09 06:02:58;;;;;;;18.63;11.77;;;;;;;13.72;100.00;99882.34;5285574;27;20851;-74
2024/04/09 06:05:23;;;;;;;23.55;12.00;;;;;;;13.75;100.00;99884.63;5288918;26;20017;-72
2024/04/09 06:07:49;;;;;;;21.20;11.10;;;;;;;13.67;100.00;99874.91;5286524;27;19997;-74
2024/04/09 06:10:18;;;;;;;26.37;11.40;;;;;;;13.97;100.00;99879.88;5287657;26;20002;-74
2024/04/09 06:12:44;;;;;;;20.45;10.63;;;;;;;13.87;100.00;99850.78;5287136;27;20283;-74
2024/04/09 06:15:09;;;;;;;22.97;11.57;;;;;;;14.15;100.00;99852.44;5284767;27;20006;-74
2024/04/09 06:17:35;;;;;;;21.47;11.53;;;;;;;14.26;100.00;99841.06;5275851;27;20002;-74
2024/04/09 06:20:00;;;;;;;20.33;11.03;;;;;;;14.39;100.00;99839.38;5276779;26;20519;-74
2024/04/09 06:22:25;;;;;;;15.43;10.53;;;;;;;14.36;100.00;99819.97;5284921;27;20225;-75
2024/04/09 06:24:51;;;;;;;21.30;9.90;;;;;;;14.41;100.00;99822.03;5289186;26;20010;-75
2024/04/09 06:27:16;;;;;;;20.10;12.87;;;;;;;14.28;100.00;99814.84;5302174;26;20017;-74
2024/04/09 06:29:42;;;;;;;19.57;10.97;;;;;;;14.30;100.00;99828.84;5277639;27;20024;-75
2024/04/09 06:32:08;;;;;;;16.88;10.20;;;;;;;14.17;100.00;99812.78;5288069;27;20321;-75
2024/04/09 06:34:34;;;;;;;16.25;10.38;;;;;;;14.33;100.00;99825.78;5285555;27;20079;-74
2024/04/09 06:37:00;;;;;;;21.00;9.48;;;;;;;14.49;100.00;99811.06;5287261;26;20361;-75
2024/04/09 06:39:25;;;;;;;;;;;;;;;14.52;100.00;99804.47;5273500;27;20006;-75
2024/04/09 06:41:51;;;;;;;19.15;8.32;;;;;;;14.63;100.00;99801.13;5287346;26;20277;-76
2024/04/09 06:44:16;;;;;;;21.60;9.87;;;;;;;14.82;100.00;99803.94;5295159;26;20002;-74
2024/04/09 06:46:41;;;;;;;15.60;9.83;;;;;;;14.72;100.00;99766.78;5277861;27;20508;-75
2024/04/09 06:49:07;;;;;;;23.53;9.63;;;;;;;14.96;100.00;99776.81;5283352;27;20340;-75
2024/04/09 06:51:32;;;;;;;24.23;9.67;;;;;;;14.90;100.00;99771.47;5284612;27;20590;-74
2024/04/09 06:53:58;;;;;;;16.37;9.63;;;;;;;15.00;100.00;99779.88;5289919;27;19999;-74
2024/04/09 06:56:23;;;;;;;18.60;9.57;;;;;;;15.08;100.00;99744.69;5277610;27;20002;-73
2024/04/09 06:58:49;;;;;;;21.30;9.73;;;;;;;15.23;100.00;99751.63;5278845;27;20017;-73
2024/04/09 07:01:15;;;;;;;22.13;9.63;;;;;;;15.15;100.00;99737.41;5284353;26;20049;-74
2024/04/09 07:03:41;;;;;;;15.68;9.70;;;;;;;15.06;100.00;99729.84;5278834;26;20099;-74
2024/04/09 07:06:06;;;;;;;17.00;9.30;;;;;;;14.82;100.00;99760.97;5274699;27;20441;-75
2024/04/09 07:08:31;;;;;;;21.73;9.83;;;;;;;14.94;100.00;99770.00;5276914;27;20009;-75
2024/04/09 07:10:57;;;;;;;17.30;10.40;;;;;;;14.65;100.00;99736.44;5276903;26;20076;-74
2024/04/09 07:13:23;;;;;;;17.83;10.27;;;;;;;14.53;100.00;99758.56;5275619;26;20024;-75
2024/04/09 07:15:48;;;;;;;20.38;11.43;;;;;;;14.47;100.00;99785.44;5282689;27;20593;-73
2024/04/09 07:18:13;;;;;;;28.08;11.77;;;;;;;14.40;100.00;99781.94;5275978;27;20080;-73
2024/04/09 07:20:39;;;;;;;21.27;12.87;;;;;;;14.23;100.00;99816.47;5285637;27;20381;-74
2024/04/09 07:23:04;;;;;;;19.73;10.93;;;;;;;14.30;100.00;99842.28;5278568;27;20037;-74
2024/04/09 07:25:31;;;;;;;25.20;12.45;;;;;;;14.20;100.00;99849.94;5276392;27;20054;-74
2024/04/09 07:27:56;;;;;;;21.13;11.68;;;;;;;14.27;100.00;99855.31;5283531;27;20352;-74
2024/04/09 07:30:21;;;;;;;20.43;10.40;;;;;;;14.31;100.00;99859.25;5284085;26;20003;-74
2024/04/09 07:32:48;;;;;;;23.73;11.60;;;;;;;14.21;100.00;99872.22;5308162;26;20384;-74
2024/04/09 07:35:14;;;;;;;;;;;;;;;14.36;100.00;99879.03;5313239;26;19997;-73
2024/04/09 07:37:41;;;;;;;23.52;10.80;;;;;;;14.42;100.00;99911.47;5285282;26;20409;-74
2024/04/09 07:40:07;;;;;;;17.02;9.90;;;;;;;14.38;100.00;100012.28;5295558;27;20013;-74
2024/04/09 07:42:32;;;;;;;20.17;10.02;;;;;;;14.41;100.00;99980.47;5278091;26;20331;-74
2024/04/09 07:44:58;;;;;;;20.90;8.83;;;;;;;14.67;100.00;99947.41;5280905;26;20012;-74
2024/04/09 07:47:23;;;;;;;18.60;8.63;;;;;;;14.79;100.00;99939.53;5315108;26;19998;-73
2024/04/09 07:49:49;;;;;;;19.33;8.70;;;;;;;15.15;100.00;99957.88;5287573;26;19999;-74
2024/04/09 07:52:15;;;;;;;24.90;9.23;;;;;;;15.36;100.00;99916.44;5273720;27;20002;-74
2024/04/09 07:54:40;;;;;;;;;;;;;;;15.17;100.00;99883.22;5272770;27;20002;-75
2024/04/09 07:57:06;;;;;;;13.70;8.68;;;;;;;15.36;100.00;99883.34;5278739;27;19950;-74
2024/04/09 07:59:31;;;;;;;17.20;8.40;;;;;;;15.62;100.00;99864.34;5269787;27;19998;-74
2024/04/09 08:01:56;;;;;;;17.83;7.60;;;;;;;15.86;100.00;99832.31;5286346;27;19995;-74
2024/04/09 08:04:22;;;;;;;16.07;7.03;;;;;;;16.11;100.00;99807.25;5294420;26;20017;-74
2024/04/09 08:06:47;;;;;;;11.20;6.28;;;;;;;16.23;100.00;99792.03;5282651;26;20831;-75
2024/04/09 08:09:13;;;;;;;24.27;8.43;;;;;;;16.31;100.00;99780.94;5266719;27;20010;-75
2024/04/09 08:11:42;;;;;;;19.77;8.27;;;;;;;16.23;100.00;99703.16;5294589;26;20009;-74
2024/04/09 08:14:09;;;;;;;22.55;7.35;;;;;;;16.39;100.00;99709.81;5300100;27;20013;-75
2024/04/09 08:16:35;;;;;;;21.13;8.75;;;;;;;16.13;100.00;99662.44;5280989;26;20080;-75
2024/04/09 08:19:00;;;;;;;20.73;10.37;;;;;;;15.62;100.00;99681.38;5273876;27;20010;-75
2024/04/09 08:21:26;;;;;;;13.80;9.07;;;;;;;15.84;100.00;99759.03;5279641;27;20017;-73
2024/04/09 08:23:51;;;;;;;19.05;9.45;;;;;;;16.06;100.00;99767.56;5283785;27;20007;-74
2024/04/09 08:26:16;;;;;;;20.00;9.07;;;;;;;16.27;100.00;99774.34;5293788;26;20005;-74
2024/04/09 08:28:42;;;;;;;14.17;8.97;;;;;;;16.56;100.00;99788.97;5294619;26;20013;-75
2024/04/09 08:31:11;;;;;;;18.00;8.63;;;;;;;16.70;100.00;99716.88;5271765;27;20252;-75
2024/04/09 08:33:37;;;;;;;21.00;7.25;;;;;;;17.07;100.00;99741.06;5293408;26;20456;-74
2024/04/09 08:36:03;;;;;;;17.98;8.75;;;;;;;17.15;100.00;99646.34;5271567;27;20012;-74
2024/04/09 08:38:28;;;;;;;16.58;7.55;;;;;;;17.35;100.00;99655.97;5294934;27;20002;-75
2024/04/09 08:40:54;;;;;;;21.43;8.33;;;;;;;17.67;100.00;99638.38;5292199;27;20017;-74
2024/04/09 08:43:20;;;;;;;11.80;7.00;;;;;;;17.80;100.00;99571.72;5276752;27;20002;-74
2024/04/09 08:45:45;;;;;;;;;;;;;;;17.99;100.00;99591.31;5287477;27;20013;-73
2024/04/09 08:48:13;;;;;;;23.75;6.68;;;;;;;17.82;100.00;99505.66;5254807;26;19963;-73
2024/04/09 08:50:43;;;;;;;17.52;5.88;;;;;;;17.93;100.00;99493.16;5284274;26;20069;-75
2024/04/09 08:53:08;;;;;;;13.52;5.72;;;;;;;18.01;100.00;99465.78;5279280;27;19997;-76
2024/04/09 08:55:35;;;;;;;11.38;5.40;;;;;;;18.24;100.00;99482.91;5276750;26;20080;-74
2024/04/09 08:58:01;;;;;;;11.00;5.68;;;;;;;18.33;100.00;99446.31;5277230;27;20006;-74
2024/04/09 09:00:26;;;;;;;19.85;5.78;;;;;;;18.41;100.00;99413.50;5274444;27;20016;-73
2024/04/09 09:02:52;;;;;;;18.50;6.00;;;;;;;18.63;100.00;99407.34;5280710;26;20444;-73
2024/04/09 09:05:18;;;;;;;;;;;;;;;18.71;100.00;99342.06;5290931;27;20486;-74
2024/04/09 09:07:44;;;;;;;19.08;6.15;;;;;;;19.06;100.00;99325.50;5279527;26;19927;-74
2024/04/09 09:10:11;;;;;;;12.55;5.72;;;;;;;19.68;100.00;99339.66;5284500;26;19994;-74
2024/04/09 09:12:37;;;;;;;12.07;5.15;;;;;;;19.86;100.00;99138.09;5274348;26;20015;-74
2024/04/09 09:15:03;;;;;;;13.80;5.63;;;;;;;20.02;100.00;99031.47;5286688;27;20532;-73
2024/04/09 09:17:31;;;;;;;21.48;5.25;;;;;;;20.20;100.00;99036.38;5286365;26;20085;-74
2024/04/09 09:19:58;;;;;;;20.95;6.70;;;;;;;20.08;100.00;98957.25;5290064;27;20002;-74
2024/04/09 09:22:25;;;;;;;23.38;7.00;;;;;;;20.51;100.00;98960.53;5297765;26;20006;-74
2024/04/09 09:24:57;;;;;;;14.50;6.47;;;;;;;20.96;100.00;98956.19;5281563;27;20442;-73
2024/04/09 09:27:22;;;;;;;16.85;5.82;;;;;;;21.41;100.00;98783.44;5274375;27;20002;-74
2024/04/09 09:29:53;;;;;;;16.10;5.63;;;;;;;21.43;100.00;98694.41;5271457;27;20017;-73
2024/04/09 09:32:21;;;;;;;16.27;6.45;;;;;;;21.83;100.00;98621.00;5271219;27;20077;-73
2024/04/09 09:34:47;;;;;;;23.92;5.82;;;;;;;22.30;100.00;98587.56;5276353;27;20084;-73
2024/04/09 09:37:14;;;;;;;10.80;5.18;;;;;;;22.42;100.00;98548.28;5273774;26;20701;-75
2024/04/09 09:39:40;;;;;;;;;;;;;;;22.99;100.00;98567.28;5276828;26;20009;-74
2024/04/09 09:42:10;;;;;;;18.20;5.88;;;;;;;22.88;100.00;98439.56;5277826;26;19926;-74
2024/04/09 09:44:38;;;;;;;13.32;5.97;;;;;;;22.73;100.00;98350.91;5272442;27;20466;-74
2024/04/09 09:47:05;;;;;;;18.45;5.85;;;;;;;22.43;100.00;98346.00;5279553;27;20492;-74
2024/04/09 09:49:31;;;;;;;13.30;6.57;;;;;;;22.13;100.00;98326.38;5270468;27;20007;-74
2024/04/09 09:51:58;;;;;;;14.65;4.50;;;;;;;21.95;100.00;98586.09;5296836;27;20016;-73
2024/04/09 09:54:24;;;;;;;13.57;5.38;;;;;;;21.71;100.00;98614.03;5268545;27;20006;-74
2024/04/09 09:57:16;;;;;;;23.85;6.18;;;;;;;21.10;100.00;98793.66;5301188;26;20358;-74
2024/04/09 09:59:51;;;;;;;15.80;4.80;;;;;;;21.68;100.00;98902.47;5283990;27;20171;-74
2024/04/09 10:02:19;;;;;;;24.03;5.97;;;;;;;21.90;100.00;98882.25;5281905;27;20021;-73
2024/04/09 10:04:44;;;;;;;21.83;5.93;;;;;;;22.30;100.00;98921.91;5277072;27;20017;-74
2024/04/09 10:07:11;;;;;;;14.05;5.35;;;;;;;22.69;100.00;98806.81;5307077;26;20005;-74
2024/04/09 10:09:50;;;;;;;14.50;5.18;;;;;;;22.68;100.00;98845.97;5279094;27;20007;-74
2024/04/09 10:12:28;;;;;;;18.90;6.05;;;;;;;23.20;100.00;98744.69;5286164;27;20021;-74
2024/04/09 10:15:05;;;;;;;21.55;6.07;;;;;;;23.17;100.00;98659.78;5280060;27;20021;-75
2024/04/09 10:18:06;;;;;;;16.65;5.03;;;;;;;23.21;100.00;98676.34;5283913;27;20005;-74
2024/04/09 10:20:36;;;;;;;10.07;4.50;;;;;;;23.65;99.71;98802.28;5273927;27;20006;-74
2024/04/09 10:23:06;;;;;;;16.30;5.38;;;;;;;23.23;96.45;98523.63;5296450;27;20006;-75
2024/04/09 10:25:40;;;;;;;17.70;5.20;;;;;;;22.64;100.00;98774.22;5273439;27;20361;-74
2024/04/09 10:28:25;;;;;;;12.43;4.70;;;;;;;21.89;99.58;98484.84;5269594;27;20263;-74
2024/04/09 10:30:51;;;;;;;13.53;3.57;;;;;;;21.48;100.00;98672.63;5273760;27;20080;-74
2024/04/09 10:33:26;;;;;;;13.02;4.60;;;;;;;20.82;100.00;98659.53;5260241;27;20010;-75
2024/04/09 10:35:54;;;;;;;15.13;4.15;;;;;;;20.89;100.00;98878.91;5289776;26;20006;-74
2024/04/09 10:38:22;;;;;;;11.70;3.78;;;;;;;20.33;100.00;98839.94;5304619;26;20482;-74
2024/04/09 10:40:49;;;;;;;7.43;3.22;;;;;;;20.37;100.00;99128.28;5291409;26;19998;-74
2024/04/09 10:43:15;;;;;;;14.43;3.90;;;;;;;20.28;100.00;99215.81;5288205;27;20016;-74
2024/04/09 10:45:41;;;;;;;12.87;3.83;;;;;;;19.99;100.00;99249.50;5298295;26;20353;-74
2024/04/09 10:48:07;;;;;;;11.73;4.50;;;;;;;19.56;100.00;99307.31;5303990;26;20460;-74
2024/04/09 10:50:33;;;;;;;15.13;6.07;;;;;;;18.68;100.00;99305.53;5292190;26;20527;-74
2024/04/09 10:52:59;;;;;;;;;;;;;;;18.34;100.00;99383.13;5278940;27;20438;-74
2024/04/09 10:55:24;;;;;;;8.75;6.95;;;;;;;18.05;100.00;99445.34;5273278;27;20017;-74
2024/04/09 10:57:51;;;;;;;12.70;7.88;;;;;;;18.10;100.00;99561.56;5277393;27;20508;-74
2024/04/09 11:00:18;;;;;;;11.00;7.05;;;;;;;18.21;100.00;99648.19;5302555;26;20002;-74
2024/04/09 11:02:45;;;;;;;17.15;7.45;;;;;;;18.41;100.00;99615.34;5284646;26;20449;-75
2024/04/09 11:05:11;;;;;;;10.73;7.18;;;;;;;18.30;100.00;99617.03;5283871;27;19998;-74
2024/04/09 11:07:41;;;;;;;12.95;7.43;;;;;;;18.22;100.00;99620.13;5271011;27;20062;-74
2024/04/09 11:10:12;;;;;;;15.57;8.70;;;;;;;18.28;100.00;99590.25;5287474;27;20001;-73